sensor_id;sensor_type;location;lat;lon;timestamp;P1;durP1;ratioP1;P2;durP2;ratioP2
36371;SDS011;22398;51.346;12.372;2023-02-23T00:04:01;15.52;;;8.20;;
36371;SDS011;22398;51.346;12.372;2023-02-23T00:14:14;14.63;;;8.48;;
36371;SDS011;22398;51.346;12.372;2023-02-23T00:19:18;19.92;;;8.90;;
36371;SDS011;22398;51.346;12.372;2023-02-23T00:24:25;12.75;;;8.07;;
36371;SDS011;22398;51.346;12.372;2023-02-23T00:29:29;18.80;;;8.43;;
36371;SDS011;22398;51.346;12.372;2023-02-23T00:34:40;16.48;;;8.70;;
36371;SDS011;22398;51.346;12.372;2023-02-23T00:39:43;16.23;;;8.13;;
36371;SDS011;22398;51.346;12.372;2023-02-23T00:44:47;14.25;;;8.07;;
36371;SDS011;22398;51.346;12.372;2023-02-23T00:49:51;15.30;;;8.68;;
36371;SDS011;22398;51.346;12.372;2023-02-23T00:54:55;14.80;;;8.13;;
36371;SDS011;22398;51.346;12.372;2023-02-23T00:59:58;14.93;;;7.88;;
36371;SDS011;22398;51.346;12.372;2023-02-23T01:05:03;16.55;;;7.88;;
36371;SDS011;22398;51.346;12.372;2023-02-23T01:10:07;20.05;;;8.65;;
36371;SDS011;22398;51.346;12.372;2023-02-23T01:15:21;16.27;;;7.97;;
36371;SDS011;22398;51.346;12.372;2023-02-23T01:20:26;15.93;;;8.93;;
36371;SDS011;22398;51.346;12.372;2023-02-23T01:25:29;15.33;;;8.53;;
36371;SDS011;22398;51.346;12.372;2023-02-23T01:30:34;17.95;;;9.30;;
36371;SDS011;22398;51.346;12.372;2023-02-23T01:35:39;15.90;;;7.75;;
36371;SDS011;22398;51.346;12.372;2023-02-23T01:40:43;17.25;;;9.20;;
36371;SDS011;22398;51.346;12.372;2023-02-23T01:45:47;14.15;;;8.30;;
36371;SDS011;22398;51.346;12.372;2023-02-23T01:50:53;14.20;;;8.05;;
36371;SDS011;22398;51.346;12.372;2023-02-23T01:56:01;18.63;;;9.80;;
36371;SDS011;22398;51.346;12.372;2023-02-23T02:01:12;13.88;;;7.78;;
36371;SDS011;22398;51.346;12.372;2023-02-23T02:06:18;20.17;;;8.93;;
36371;SDS011;22398;51.346;12.372;2023-02-23T02:11:26;16.13;;;8.95;;
36371;SDS011;22398;51.346;12.372;2023-02-23T02:16:40;17.85;;;8.98;;
36371;SDS011;22398;51.346;12.372;2023-02-23T02:22:05;19.35;;;9.60;;
36371;SDS011;22398;51.346;12.372;2023-02-23T02:27:23;20.63;;;10.27;;
36371;SDS011;22398;51.346;12.372;2023-02-23T02:38:31;25.00;;;10.85;;
36371;SDS011;22398;51.346;12.372;2023-02-23T02:43:44;20.23;;;11.05;;
36371;SDS011;22398;51.346;12.372;2023-02-23T02:48:58;20.00;;;10.75;;
36371;SDS011;22398;51.346;12.372;2023-02-23T02:54:12;19.10;;;10.43;;
36371;SDS011;22398;51.346;12.372;2023-02-23T02:59:23;23.17;;;10.25;;
36371;SDS011;22398;51.346;12.372;2023-02-23T03:04:44;17.02;;;9.10;;
36371;SDS011;22398;51.346;12.372;2023-02-23T03:10:07;18.35;;;9.20;;
36371;SDS011;22398;51.346;12.372;2023-02-23T03:15:36;18.92;;;9.50;;
36371;SDS011;22398;51.346;12.372;2023-02-23T03:21:08;17.52;;;9.18;;
36371;SDS011;22398;51.346;12.372;2023-02-23T03:26:36;15.82;;;8.63;;
36371;SDS011;22398;51.346;12.372;2023-02-23T03:32:05;18.40;;;9.45;;
36371;SDS011;22398;51.346;12.372;2023-02-23T03:37:34;19.80;;;10.02;;
36371;SDS011;22398;51.346;12.372;2023-02-23T03:43:00;17.87;;;9.73;;
36371;SDS011;22398;51.346;12.372;2023-02-23T03:48:27;20.00;;;9.48;;
36371;SDS011;22398;51.346;12.372;2023-02-23T03:53:49;19.02;;;10.00;;
36371;SDS011;22398;51.346;12.372;2023-02-23T03:59:14;20.50;;;9.75;;
36371;SDS011;22398;51.346;12.372;2023-02-23T04:04:39;18.52;;;9.13;;
36371;SDS011;22398;51.346;12.372;2023-02-23T04:10:03;20.50;;;9.10;;
36371;SDS011;22398;51.346;12.372;2023-02-23T04:15:26;17.83;;;9.57;;
36371;SDS011;22398;51.346;12.372;2023-02-23T04:20:33;19.25;;;9.40;;
36371;SDS011;22398;51.346;12.372;2023-02-23T04:25:36;20.10;;;9.43;;
36371;SDS011;22398;51.346;12.372;2023-02-23T04:30:41;16.63;;;9.45;;
36371;SDS011;22398;51.346;12.372;2023-02-23T04:35:44;19.52;;;9.93;;
36371;SDS011;22398;51.346;12.372;2023-02-23T04:40:48;19.42;;;9.25;;
36371;SDS011;22398;51.346;12.372;2023-02-23T04:45:52;21.90;;;9.90;;
36371;SDS011;22398;51.346;12.372;2023-02-23T04:50:56;21.08;;;9.68;;
36371;SDS011;22398;51.346;12.372;2023-02-23T04:55:59;19.40;;;9.20;;
36371;SDS011;22398;51.346;12.372;2023-02-23T05:01:04;18.45;;;9.63;;
36371;SDS011;22398;51.346;12.372;2023-02-23T05:06:08;19.63;;;9.43;;
36371;SDS011;22398;51.346;12.372;2023-02-23T05:11:12;17.48;;;9.20;;
36371;SDS011;22398;51.346;12.372;2023-02-23T05:16:17;18.35;;;8.90;;
36371;SDS011;22398;51.346;12.372;2023-02-23T05:21:21;18.38;;;9.45;;
36371;SDS011;22398;51.346;12.372;2023-02-23T05:26:25;17.27;;;10.48;;
36371;SDS011;22398;51.346;12.372;2023-02-23T05:31:30;19.80;;;9.75;;
36371;SDS011;22398;51.346;12.372;2023-02-23T05:36:33;20.83;;;9.40;;
36371;SDS011;22398;51.346;12.372;2023-02-23T05:41:37;16.60;;;9.15;;
36371;SDS011;22398;51.346;12.372;2023-02-23T05:46:43;26.80;;;10.40;;
36371;SDS011;22398;51.346;12.372;2023-02-23T05:51:47;16.17;;;8.52;;
36371;SDS011;22398;51.346;12.372;2023-02-23T05:56:51;20.90;;;10.35;;
36371;SDS011;22398;51.346;12.372;2023-02-23T06:01:56;20.02;;;9.75;;
36371;SDS011;22398;51.346;12.372;2023-02-23T06:06:59;24.00;;;11.13;;
36371;SDS011;22398;51.346;12.372;2023-02-23T06:12:03;20.92;;;10.30;;
36371;SDS011;22398;51.346;12.372;2023-02-23T06:17:08;19.15;;;10.38;;
36371;SDS011;22398;51.346;12.372;2023-02-23T06:22:11;18.67;;;9.30;;
36371;SDS011;22398;51.346;12.372;2023-02-23T06:27:14;21.38;;;10.18;;
36371;SDS011;22398;51.346;12.372;2023-02-23T06:32:19;20.05;;;11.10;;
36371;SDS011;22398;51.346;12.372;2023-02-23T06:37:24;20.27;;;10.25;;
36371;SDS011;22398;51.346;12.372;2023-02-23T06:42:27;17.63;;;9.43;;
36371;SDS011;22398;51.346;12.372;2023-02-23T06:47:32;21.23;;;9.20;;
36371;SDS011;22398;51.346;12.372;2023-02-23T06:52:35;20.52;;;11.43;;
36371;SDS011;22398;51.346;12.372;2023-02-23T06:57:39;18.95;;;9.93;;
36371;SDS011;22398;51.346;12.372;2023-02-23T07:02:44;18.55;;;10.15;;
36371;SDS011;22398;51.346;12.372;2023-02-23T07:07:48;17.67;;;8.52;;
36371;SDS011;22398;51.346;12.372;2023-02-23T07:12:52;15.88;;;9.32;;
36371;SDS011;22398;51.346;12.372;2023-02-23T07:17:57;17.80;;;8.95;;
36371;SDS011;22398;51.346;12.372;2023-02-23T07:23:01;22.57;;;9.67;;
36371;SDS011;22398;51.346;12.372;2023-02-23T07:28:05;23.77;;;9.95;;
36371;SDS011;22398;51.346;12.372;2023-02-23T07:33:09;18.67;;;9.85;;
36371;SDS011;22398;51.346;12.372;2023-02-23T07:38:13;21.60;;;10.97;;
36371;SDS011;22398;51.346;12.372;2023-02-23T07:43:17;27.48;;;11.52;;
36371;SDS011;22398;51.346;12.372;2023-02-23T07:48:23;17.50;;;9.20;;
36371;SDS011;22398;51.346;12.372;2023-02-23T07:53:26;18.67;;;9.33;;
36371;SDS011;22398;51.346;12.372;2023-02-23T07:58:30;18.35;;;9.73;;
36371;SDS011;22398;51.346;12.372;2023-02-23T08:03:34;24.90;;;11.20;;
36371;SDS011;22398;51.346;12.372;2023-02-23T08:08:39;24.98;;;10.85;;
36371;SDS011;22398;51.346;12.372;2023-02-23T08:13:42;31.50;;;10.73;;
36371;SDS011;22398;51.346;12.372;2023-02-23T08:18:47;19.52;;;9.25;;
36371;SDS011;22398;51.346;12.372;2023-02-23T08:23:50;18.07;;;9.50;;
36371;SDS011;22398;51.346;12.372;2023-02-23T08:28:53;28.00;;;10.25;;
36371;SDS011;22398;51.346;12.372;2023-02-23T08:33:58;20.25;;;10.90;;
36371;SDS011;22398;51.346;12.372;2023-02-23T08:39:02;17.43;;;10.20;;
36371;SDS011;22398;51.346;12.372;2023-02-23T08:44:06;19.63;;;10.07;;
36371;SDS011;22398;51.346;12.372;2023-02-23T08:49:11;34.67;;;15.68;;
36371;SDS011;22398;51.346;12.372;2023-02-23T08:54:15;18.07;;;10.10;;
36371;SDS011;22398;51.346;12.372;2023-02-23T08:59:18;22.85;;;12.35;;
36371;SDS011;22398;51.346;12.372;2023-02-23T09:04:23;27.15;;;11.98;;
36371;SDS011;22398;51.346;12.372;2023-02-23T09:09:27;20.90;;;11.43;;
36371;SDS011;22398;51.346;12.372;2023-02-23T09:14:30;24.52;;;12.27;;
36371;SDS011;22398;51.346;12.372;2023-02-23T09:19:43;23.45;;;12.18;;
36371;SDS011;22398;51.346;12.372;2023-02-23T09:24:46;22.80;;;11.63;;
36371;SDS011;22398;51.346;12.372;2023-02-23T09:29:50;24.58;;;13.13;;
36371;SDS011;22398;51.346;12.372;2023-02-23T09:34:54;28.48;;;13.55;;
36371;SDS011;22398;51.346;12.372;2023-02-23T09:39:58;28.67;;;14.97;;
36371;SDS011;22398;51.346;12.372;2023-02-23T09:45:11;29.20;;;15.60;;
36371;SDS011;22398;51.346;12.372;2023-02-23T09:50:24;37.88;;;15.38;;
36371;SDS011;22398;51.346;12.372;2023-02-23T09:55:30;34.47;;;14.57;;
36371;SDS011;22398;51.346;12.372;2023-02-23T10:00:35;28.05;;;15.88;;
36371;SDS011;22398;51.346;12.372;2023-02-23T10:05:53;34.70;;;15.77;;
36371;SDS011;22398;51.346;12.372;2023-02-23T10:11:03;31.48;;;15.32;;
36371;SDS011;22398;51.346;12.372;2023-02-23T10:16:17;34.72;;;16.40;;
36371;SDS011;22398;51.346;12.372;2023-02-23T10:21:28;33.95;;;16.55;;
36371;SDS011;22398;51.346;12.372;2023-02-23T10:26:37;31.55;;;16.10;;
36371;SDS011;22398;51.346;12.372;2023-02-23T10:31:45;33.28;;;16.02;;
36371;SDS011;22398;51.346;12.372;2023-02-23T10:36:56;32.22;;;16.58;;
36371;SDS011;22398;51.346;12.372;2023-02-23T10:42:02;32.88;;;16.80;;
36371;SDS011;22398;51.346;12.372;2023-02-23T10:47:13;32.53;;;17.33;;
36371;SDS011;22398;51.346;12.372;2023-02-23T10:52:21;28.75;;;15.90;;
36371;SDS011;22398;51.346;12.372;2023-02-23T10:57:33;31.70;;;17.50;;
36371;SDS011;22398;51.346;12.372;2023-02-23T11:02:40;34.70;;;18.30;;
36371;SDS011;22398;51.346;12.372;2023-02-23T11:07:46;38.20;;;18.38;;
36371;SDS011;22398;51.346;12.372;2023-02-23T11:12:49;35.73;;;19.87;;
36371;SDS011;22398;51.346;12.372;2023-02-23T11:17:54;37.72;;;19.33;;
36371;SDS011;22398;51.346;12.372;2023-02-23T11:22:59;37.70;;;18.08;;
36371;SDS011;22398;51.346;12.372;2023-02-23T11:28:15;32.88;;;17.55;;
36371;SDS011;22398;51.346;12.372;2023-02-23T11:33:24;38.50;;;18.85;;
36371;SDS011;22398;51.346;12.372;2023-02-23T11:38:33;37.40;;;18.75;;
36371;SDS011;22398;51.346;12.372;2023-02-23T11:43:36;32.30;;;17.67;;
36371;SDS011;22398;51.346;12.372;2023-02-23T11:48:49;33.17;;;17.77;;
36371;SDS011;22398;51.346;12.372;2023-02-23T11:53:57;32.92;;;18.48;;
36371;SDS011;22398;51.346;12.372;2023-02-23T11:59:02;37.35;;;19.80;;
36371;SDS011;22398;51.346;12.372;2023-02-23T12:04:09;45.08;;;21.08;;
36371;SDS011;22398;51.346;12.372;2023-02-23T12:09:27;39.03;;;20.90;;
36371;SDS011;22398;51.346;12.372;2023-02-23T12:14:35;40.58;;;21.08;;
36371;SDS011;22398;51.346;12.372;2023-02-23T12:19:44;35.53;;;19.50;;
36371;SDS011;22398;51.346;12.372;2023-02-23T12:24:53;39.83;;;20.50;;
36371;SDS011;22398;51.346;12.372;2023-02-23T12:30:03;40.25;;;20.15;;
36371;SDS011;22398;51.346;12.372;2023-02-23T12:35:15;44.85;;;20.70;;
36371;SDS011;22398;51.346;12.372;2023-02-23T12:40:25;39.20;;;20.67;;
36371;SDS011;22398;51.346;12.372;2023-02-23T12:45:32;34.75;;;19.85;;
36371;SDS011;22398;51.346;12.372;2023-02-23T12:50:41;46.83;;;22.65;;
36371;SDS011;22398;51.346;12.372;2023-02-23T12:55:53;41.10;;;21.98;;
36371;SDS011;22398;51.346;12.372;2023-02-23T13:01:07;45.40;;;25.02;;
36371;SDS011;22398;51.346;12.372;2023-02-23T13:06:16;42.55;;;22.77;;
36371;SDS011;22398;51.346;12.372;2023-02-23T13:11:31;41.88;;;23.00;;
36371;SDS011;22398;51.346;12.372;2023-02-23T13:16:46;46.10;;;22.95;;
36371;SDS011;22398;51.346;12.372;2023-02-23T13:21:56;46.95;;;23.60;;
36371;SDS011;22398;51.346;12.372;2023-02-23T13:27:09;53.72;;;24.23;;
36371;SDS011;22398;51.346;12.372;2023-02-23T13:32:17;43.40;;;23.13;;
36371;SDS011;22398;51.346;12.372;2023-02-23T13:37:24;48.65;;;21.83;;
36371;SDS011;22398;51.346;12.372;2023-02-23T13:42:38;46.88;;;23.52;;
36371;SDS011;22398;51.346;12.372;2023-02-23T13:47:46;49.25;;;24.63;;
36371;SDS011;22398;51.346;12.372;2023-02-23T13:52:55;48.55;;;23.70;;
36371;SDS011;22398;51.346;12.372;2023-02-23T13:58:10;49.22;;;24.52;;
36371;SDS011;22398;51.346;12.372;2023-02-23T14:03:19;54.92;;;25.25;;
36371;SDS011;22398;51.346;12.372;2023-02-23T14:08:26;50.80;;;24.48;;
36371;SDS011;22398;51.346;12.372;2023-02-23T14:13:34;51.25;;;24.33;;
36371;SDS011;22398;51.346;12.372;2023-02-23T14:18:53;56.08;;;24.92;;
36371;SDS011;22398;51.346;12.372;2023-02-23T14:24:16;57.05;;;26.05;;
36371;SDS011;22398;51.346;12.372;2023-02-23T14:29:24;52.95;;;27.00;;
36371;SDS011;22398;51.346;12.372;2023-02-23T14:34:43;55.55;;;26.80;;
36371;SDS011;22398;51.346;12.372;2023-02-23T14:39:49;55.53;;;27.45;;
36371;SDS011;22398;51.346;12.372;2023-02-23T14:50:00;66.33;;;26.73;;
36371;SDS011;22398;51.346;12.372;2023-02-23T14:55:06;52.35;;;25.50;;
36371;SDS011;22398;51.346;12.372;2023-02-23T15:00:20;61.70;;;27.70;;
36371;SDS011;22398;51.346;12.372;2023-02-23T15:05:27;55.10;;;24.92;;
36371;SDS011;22398;51.346;12.372;2023-02-23T15:10:33;53.53;;;26.30;;
36371;SDS011;22398;51.346;12.372;2023-02-23T15:15:41;60.83;;;27.38;;
36371;SDS011;22398;51.346;12.372;2023-02-23T15:20:47;63.80;;;27.17;;
36371;SDS011;22398;51.346;12.372;2023-02-23T15:25:51;59.38;;;28.55;;
36371;SDS011;22398;51.346;12.372;2023-02-23T15:30:58;58.28;;;27.33;;
36371;SDS011;22398;51.346;12.372;2023-02-23T15:36:05;59.03;;;26.95;;
36371;SDS011;22398;51.346;12.372;2023-02-23T15:41:16;61.17;;;27.77;;
36371;SDS011;22398;51.346;12.372;2023-02-23T15:46:26;60.28;;;29.25;;
36371;SDS011;22398;51.346;12.372;2023-02-23T15:51:34;56.47;;;27.10;;
36371;SDS011;22398;51.346;12.372;2023-02-23T15:56:39;58.20;;;26.30;;
36371;SDS011;22398;51.346;12.372;2023-02-23T16:01:50;72.80;;;33.15;;
36371;SDS011;22398;51.346;12.372;2023-02-23T16:07:05;64.28;;;29.08;;
36371;SDS011;22398;51.346;12.372;2023-02-23T16:12:16;67.38;;;29.50;;
36371;SDS011;22398;51.346;12.372;2023-02-23T16:17:27;63.55;;;29.13;;
36371;SDS011;22398;51.346;12.372;2023-02-23T16:22:35;70.18;;;30.65;;
36371;SDS011;22398;51.346;12.372;2023-02-23T16:27:41;74.60;;;31.40;;
36371;SDS011;22398;51.346;12.372;2023-02-23T16:32:48;70.88;;;30.92;;
36371;SDS011;22398;51.346;12.372;2023-02-23T16:38:10;63.83;;;29.65;;
36371;SDS011;22398;51.346;12.372;2023-02-23T16:43:15;71.43;;;31.50;;
36371;SDS011;22398;51.346;12.372;2023-02-23T16:48:20;69.15;;;32.28;;
36371;SDS011;22398;51.346;12.372;2023-02-23T16:53:24;66.50;;;31.65;;
36371;SDS011;22398;51.346;12.372;2023-02-23T16:58:27;72.40;;;33.58;;
36371;SDS011;22398;51.346;12.372;2023-02-23T17:03:34;74.57;;;34.63;;
36371;SDS011;22398;51.346;12.372;2023-02-23T17:08:47;80.65;;;34.00;;
36371;SDS011;22398;51.346;12.372;2023-02-23T17:13:59;77.32;;;33.40;;
36371;SDS011;22398;51.346;12.372;2023-02-23T17:19:03;89.15;;;35.40;;
36371;SDS011;22398;51.346;12.372;2023-02-23T17:24:07;77.95;;;34.33;;
36371;SDS011;22398;51.346;12.372;2023-02-23T17:29:11;77.80;;;34.05;;
36371;SDS011;22398;51.346;12.372;2023-02-23T17:34:15;82.40;;;34.55;;
36371;SDS011;22398;51.346;12.372;2023-02-23T17:39:19;86.87;;;33.20;;
36371;SDS011;22398;51.346;12.372;2023-02-23T17:44:22;84.40;;;37.28;;
36371;SDS011;22398;51.346;12.372;2023-02-23T17:49:27;81.55;;;34.83;;
36371;SDS011;22398;51.346;12.372;2023-02-23T17:54:30;81.67;;;38.90;;
36371;SDS011;22398;51.346;12.372;2023-02-23T17:59:34;87.28;;;37.70;;
36371;SDS011;22398;51.346;12.372;2023-02-23T18:04:39;88.65;;;37.03;;
36371;SDS011;22398;51.346;12.372;2023-02-23T18:09:42;84.97;;;38.83;;
36371;SDS011;22398;51.346;12.372;2023-02-23T18:14:50;88.95;;;39.00;;
36371;SDS011;22398;51.346;12.372;2023-02-23T18:19:55;85.47;;;37.97;;
36371;SDS011;22398;51.346;12.372;2023-02-23T18:24:58;85.53;;;36.87;;
36371;SDS011;22398;51.346;12.372;2023-02-23T18:30:02;94.68;;;38.53;;
36371;SDS011;22398;51.346;12.372;2023-02-23T18:35:08;87.40;;;39.47;;
36371;SDS011;22398;51.346;12.372;2023-02-23T18:40:11;84.75;;;37.72;;
36371;SDS011;22398;51.346;12.372;2023-02-23T18:45:22;83.40;;;37.42;;
36371;SDS011;22398;51.346;12.372;2023-02-23T18:50:26;88.95;;;38.50;;
36371;SDS011;22398;51.346;12.372;2023-02-23T18:55:30;55.35;;;28.17;;
36371;SDS011;22398;51.346;12.372;2023-02-23T19:00:33;49.75;;;24.77;;
36371;SDS011;22398;51.346;12.372;2023-02-23T19:05:43;46.20;;;23.85;;
36371;SDS011;22398;51.346;12.372;2023-02-23T19:10:51;37.55;;;18.95;;
36371;SDS011;22398;51.346;12.372;2023-02-23T19:15:54;38.25;;;20.52;;
36371;SDS011;22398;51.346;12.372;2023-02-23T19:21:01;43.40;;;20.70;;
36371;SDS011;22398;51.346;12.372;2023-02-23T19:26:04;43.55;;;23.80;;
36371;SDS011;22398;51.346;12.372;2023-02-23T19:31:09;46.63;;;22.08;;
36371;SDS011;22398;51.346;12.372;2023-02-23T19:36:18;45.42;;;21.65;;
36371;SDS011;22398;51.346;12.372;2023-02-23T19:41:23;49.60;;;22.73;;
36371;SDS011;22398;51.346;12.372;2023-02-23T19:46:26;39.50;;;20.40;;
36371;SDS011;22398;51.346;12.372;2023-02-23T19:51:31;49.50;;;23.15;;
36371;SDS011;22398;51.346;12.372;2023-02-23T19:56:34;49.00;;;23.40;;
36371;SDS011;22398;51.346;12.372;2023-02-23T20:01:38;45.67;;;22.52;;
36371;SDS011;22398;51.346;12.372;2023-02-23T20:11:48;39.28;;;21.13;;
36371;SDS011;22398;51.346;12.372;2023-02-23T20:16:51;40.05;;;21.45;;
36371;SDS011;22398;51.346;12.372;2023-02-23T20:21:56;44.40;;;21.38;;
36371;SDS011;22398;51.346;12.372;2023-02-23T20:26:59;37.75;;;20.40;;
36371;SDS011;22398;51.346;12.372;2023-02-23T20:32:03;37.85;;;19.58;;
36371;SDS011;22398;51.346;12.372;2023-02-23T20:37:08;31.88;;;17.30;;
36371;SDS011;22398;51.346;12.372;2023-02-23T20:42:11;30.27;;;14.43;;
36371;SDS011;22398;51.346;12.372;2023-02-23T20:47:15;35.13;;;15.57;;
36371;SDS011;22398;51.346;12.372;2023-02-23T20:52:20;27.55;;;15.32;;
36371;SDS011;22398;51.346;12.372;2023-02-23T20:57:23;33.95;;;17.38;;
36371;SDS011;22398;51.346;12.372;2023-02-23T21:02:27;38.63;;;20.30;;
36371;SDS011;22398;51.346;12.372;2023-02-23T21:07:32;36.50;;;17.55;;
36371;SDS011;22398;51.346;12.372;2023-02-23T21:12:36;41.87;;;19.70;;
36371;SDS011;22398;51.346;12.372;2023-02-23T21:17:39;44.58;;;20.58;;
36371;SDS011;22398;51.346;12.372;2023-02-23T21:22:45;48.90;;;23.83;;
36371;SDS011;22398;51.346;12.372;2023-02-23T21:27:49;46.33;;;20.92;;
36371;SDS011;22398;51.346;12.372;2023-02-23T21:32:54;43.43;;;20.40;;
36371;SDS011;22398;51.346;12.372;2023-02-23T21:43:04;39.13;;;20.50;;
36371;SDS011;22398;51.346;12.372;2023-02-23T21:48:09;41.15;;;20.65;;
36371;SDS011;22398;51.346;12.372;2023-02-23T21:53:14;40.67;;;20.80;;
36371;SDS011;22398;51.346;12.372;2023-02-23T21:58:17;47.95;;;21.73;;
36371;SDS011;22398;51.346;12.372;2023-02-23T22:03:21;49.53;;;22.52;;
36371;SDS011;22398;51.346;12.372;2023-02-23T22:08:29;48.47;;;21.27;;
36371;SDS011;22398;51.346;12.372;2023-02-23T22:13:32;44.65;;;21.75;;
36371;SDS011;22398;51.346;12.372;2023-02-23T22:18:35;50.60;;;20.60;;
36371;SDS011;22398;51.346;12.372;2023-02-23T22:23:41;39.50;;;17.42;;
36371;SDS011;22398;51.346;12.372;2023-02-23T22:28:47;42.03;;;17.73;;
36371;SDS011;22398;51.346;12.372;2023-02-23T22:33:50;37.67;;;16.23;;
36371;SDS011;22398;51.346;12.372;2023-02-23T22:38:57;39.28;;;17.27;;
36371;SDS011;22398;51.346;12.372;2023-02-23T22:44:00;38.25;;;16.52;;
36371;SDS011;22398;51.346;12.372;2023-02-23T22:49:04;40.85;;;16.88;;
36371;SDS011;22398;51.346;12.372;2023-02-23T22:54:09;43.95;;;17.25;;
36371;SDS011;22398;51.346;12.372;2023-02-23T22:59:13;39.95;;;16.75;;
36371;SDS011;22398;51.346;12.372;2023-02-23T23:04:18;41.35;;;17.45;;
36371;SDS011;22398;51.346;12.372;2023-02-23T23:09:24;38.07;;;15.47;;
36371;SDS011;22398;51.346;12.372;2023-02-23T23:14:28;36.03;;;16.77;;
36371;SDS011;22398;51.346;12.372;2023-02-23T23:19:33;35.53;;;15.93;;
36371;SDS011;22398;51.346;12.372;2023-02-23T23:24:41;35.35;;;16.27;;
36371;SDS011;22398;51.346;12.372;2023-02-23T23:29:49;40.78;;;15.30;;
36371;SDS011;22398;51.346;12.372;2023-02-23T23:34:52;42.45;;;15.52;;
36371;SDS011;22398;51.346;12.372;2023-02-23T23:39:59;36.28;;;14.50;;
36371;SDS011;22398;51.346;12.372;2023-02-23T23:45:06;32.00;;;13.73;;
36371;SDS011;22398;51.346;12.372;2023-02-23T23:50:11;32.63;;;12.70;;
